Marstons Mills, Massachusetts
Current Conditions -  °F | °C
As of 3:35 PM on Monday 24 Nov 2014 (Local Time) from KFMH Reporting Station
Haze Haze  
Wind Chill: 64°   Ceiling: 1000
Heat Index: 64°   Visibility: 4mi
Dew Point: 63°   Wind: 28mph
Humidity: 94%   Direction: 200°SSW
Pressure: 29.68"   Gusts: 37mph
Location:  41.66°N, 70.41°W
Report Text: KFMH 242035Z AUTO 20024G32KT 4SM BR BKN010 OVC013 18/17 A2968 RMK AO2
Loading
Personal Weather Stations






























Interactive Weather Map New forecast layout! Learn more

10-Day Weather Forecast

Advertisements
Track Severe Weather on mobile